sensor_id;sensor_type;location;lat;lon;timestamp;P1;durP1;ratioP1;P2;durP2;ratioP2
13795;SDS011;40911;51.552;9.874;2023-07-08T00:02:30;3.17;;;2.20;;
13795;SDS011;40911;51.552;9.874;2023-07-08T00:04:52;5.07;;;2.67;;
13795;SDS011;40911;51.552;9.874;2023-07-08T00:09:39;7.93;;;2.95;;
13795;SDS011;40911;51.552;9.874;2023-07-08T00:12:00;5.00;;;2.55;;
13795;SDS011;40911;51.552;9.874;2023-07-08T00:16:44;2.83;;;2.45;;
13795;SDS011;40911;51.552;9.874;2023-07-08T00:19:08;4.30;;;2.70;;
13795;SDS011;40911;51.552;9.874;2023-07-08T00:21:30;4.07;;;2.63;;
13795;SDS011;40911;51.552;9.874;2023-07-08T00:26:15;4.47;;;2.55;;
13795;SDS011;40911;51.552;9.874;2023-07-08T00:28:40;3.78;;;2.63;;
13795;SDS011;40911;51.552;9.874;2023-07-08T00:33:23;3.92;;;2.67;;
13795;SDS011;40911;51.552;9.874;2023-07-08T00:38:10;4.93;;;2.92;;
13795;SDS011;40911;51.552;9.874;2023-07-08T00:40:35;4.13;;;2.60;;
13795;SDS011;40911;51.552;9.874;2023-07-08T00:48:05;3.60;;;2.92;;
13795;SDS011;40911;51.552;9.874;2023-07-08T00:50:38;3.80;;;2.80;;
13795;SDS011;40911;51.552;9.874;2023-07-08T00:55:39;3.22;;;2.72;;
13795;SDS011;40911;51.552;9.874;2023-07-08T00:58:03;3.13;;;2.50;;
13795;SDS011;40911;51.552;9.874;2023-07-08T01:00:24;4.43;;;2.75;;
13795;SDS011;40911;51.552;9.874;2023-07-08T01:02:49;3.47;;;2.80;;
13795;SDS011;40911;51.552;9.874;2023-07-08T01:05:15;5.78;;;2.47;;
13795;SDS011;40911;51.552;9.874;2023-07-08T01:07:40;5.10;;;2.55;;
13795;SDS011;40911;51.552;9.874;2023-07-08T01:10:05;7.32;;;2.95;;
13795;SDS011;40911;51.552;9.874;2023-07-08T01:12:33;3.63;;;2.90;;
13795;SDS011;40911;51.552;9.874;2023-07-08T01:14:58;5.22;;;2.97;;
13795;SDS011;40911;51.552;9.874;2023-07-08T01:17:23;3.53;;;2.72;;
13795;SDS011;40911;51.552;9.874;2023-07-08T01:22:08;3.15;;;2.65;;
13795;SDS011;40911;51.552;9.874;2023-07-08T01:24:31;5.30;;;2.60;;
13795;SDS011;40911;51.552;9.874;2023-07-08T01:26:54;4.25;;;2.97;;
13795;SDS011;40911;51.552;9.874;2023-07-08T01:29:17;4.03;;;2.63;;
13795;SDS011;40911;51.552;9.874;2023-07-08T01:34:00;3.83;;;2.88;;
13795;SDS011;40911;51.552;9.874;2023-07-08T01:38:45;3.95;;;2.95;;
13795;SDS011;40911;51.552;9.874;2023-07-08T01:41:10;7.07;;;2.88;;
13795;SDS011;40911;51.552;9.874;2023-07-08T01:43:33;3.47;;;2.90;;
13795;SDS011;40911;51.552;9.874;2023-07-08T01:48:17;3.30;;;2.92;;
13795;SDS011;40911;51.552;9.874;2023-07-08T01:50:41;3.30;;;2.63;;
13795;SDS011;40911;51.552;9.874;2023-07-08T01:53:13;4.90;;;3.13;;
13795;SDS011;40911;51.552;9.874;2023-07-08T01:55:37;4.97;;;3.20;;
13795;SDS011;40911;51.552;9.874;2023-07-08T01:57:59;4.25;;;2.85;;
13795;SDS011;40911;51.552;9.874;2023-07-08T02:00:21;5.45;;;3.35;;
13795;SDS011;40911;51.552;9.874;2023-07-08T02:02:43;8.40;;;3.08;;
13795;SDS011;40911;51.552;9.874;2023-07-08T02:07:26;3.58;;;3.13;;
13795;SDS011;40911;51.552;9.874;2023-07-08T02:12:10;4.93;;;3.20;;
13795;SDS011;40911;51.552;9.874;2023-07-08T02:14:32;4.22;;;2.90;;
13795;SDS011;40911;51.552;9.874;2023-07-08T02:19:15;3.50;;;3.17;;
13795;SDS011;40911;51.552;9.874;2023-07-08T02:21:37;4.28;;;3.13;;
13795;SDS011;40911;51.552;9.874;2023-07-08T02:24:00;3.92;;;3.30;;
13795;SDS011;40911;51.552;9.874;2023-07-08T02:26:22;3.35;;;3.00;;
13795;SDS011;40911;51.552;9.874;2023-07-08T02:31:06;4.00;;;3.22;;
13795;SDS011;40911;51.552;9.874;2023-07-08T02:35:52;3.90;;;3.00;;
13795;SDS011;40911;51.552;9.874;2023-07-08T02:38:14;3.30;;;3.00;;
13795;SDS011;40911;51.552;9.874;2023-07-08T02:42:57;4.05;;;2.97;;
13795;SDS011;40911;51.552;9.874;2023-07-08T02:47:41;3.22;;;2.85;;
13795;SDS011;40911;51.552;9.874;2023-07-08T02:52:25;3.63;;;3.10;;
13795;SDS011;40911;51.552;9.874;2023-07-08T02:54:47;4.78;;;3.35;;
13795;SDS011;40911;51.552;9.874;2023-07-08T02:59:30;5.40;;;3.33;;
13795;SDS011;40911;51.552;9.874;2023-07-08T03:04:14;4.55;;;3.20;;
13795;SDS011;40911;51.552;9.874;2023-07-08T03:06:36;4.65;;;3.40;;
13795;SDS011;40911;51.552;9.874;2023-07-08T03:11:19;4.53;;;3.55;;
13795;SDS011;40911;51.552;9.874;2023-07-08T03:16:02;4.40;;;3.55;;
13795;SDS011;40911;51.552;9.874;2023-07-08T03:18:33;5.90;;;3.97;;
13795;SDS011;40911;51.552;9.874;2023-07-08T03:21:05;7.78;;;3.60;;
13795;SDS011;40911;51.552;9.874;2023-07-08T03:23:28;6.70;;;3.65;;
13795;SDS011;40911;51.552;9.874;2023-07-08T03:25:50;4.20;;;3.60;;
13795;SDS011;40911;51.552;9.874;2023-07-08T03:28:12;5.25;;;3.63;;
13795;SDS011;40911;51.552;9.874;2023-07-08T03:30:34;4.75;;;3.35;;
13795;SDS011;40911;51.552;9.874;2023-07-08T03:32:56;4.38;;;3.35;;
13795;SDS011;40911;51.552;9.874;2023-07-08T03:37:42;3.75;;;3.00;;
13795;SDS011;40911;51.552;9.874;2023-07-08T03:42:26;5.38;;;3.45;;
13795;SDS011;40911;51.552;9.874;2023-07-08T03:44:47;4.18;;;3.35;;
13795;SDS011;40911;51.552;9.874;2023-07-08T03:49:30;3.47;;;3.17;;
13795;SDS011;40911;51.552;9.874;2023-07-08T03:54:15;6.53;;;3.50;;
13795;SDS011;40911;51.552;9.874;2023-07-08T03:56:38;7.00;;;3.40;;
13795;SDS011;40911;51.552;9.874;2023-07-08T04:01:22;5.15;;;3.33;;
13795;SDS011;40911;51.552;9.874;2023-07-08T04:03:46;8.73;;;3.40;;
13795;SDS011;40911;51.552;9.874;2023-07-08T04:06:08;4.68;;;3.42;;
13795;SDS011;40911;51.552;9.874;2023-07-08T04:08:31;7.63;;;3.58;;
13795;SDS011;40911;51.552;9.874;2023-07-08T04:10:52;6.35;;;3.55;;
13795;SDS011;40911;51.552;9.874;2023-07-08T04:13:14;4.63;;;3.50;;
13795;SDS011;40911;51.552;9.874;2023-07-08T04:17:57;11.18;;;3.55;;
13795;SDS011;40911;51.552;9.874;2023-07-08T04:20:19;7.07;;;3.55;;
13795;SDS011;40911;51.552;9.874;2023-07-08T04:22:41;7.75;;;3.20;;
13795;SDS011;40911;51.552;9.874;2023-07-08T04:25:04;4.07;;;3.13;;
13795;SDS011;40911;51.552;9.874;2023-07-08T04:27:26;9.15;;;3.60;;
13795;SDS011;40911;51.552;9.874;2023-07-08T04:29:47;11.10;;;4.18;;
13795;SDS011;40911;51.552;9.874;2023-07-08T04:32:09;6.22;;;3.53;;
13795;SDS011;40911;51.552;9.874;2023-07-08T04:34:31;8.07;;;3.55;;
13795;SDS011;40911;51.552;9.874;2023-07-08T04:36:53;5.63;;;3.30;;
13795;SDS011;40911;51.552;9.874;2023-07-08T04:41:37;8.35;;;3.50;;
13795;SDS011;40911;51.552;9.874;2023-07-08T04:44:00;8.82;;;3.78;;
13795;SDS011;40911;51.552;9.874;2023-07-08T04:46:25;9.48;;;3.85;;
13795;SDS011;40911;51.552;9.874;2023-07-08T04:48:54;4.78;;;3.42;;
13795;SDS011;40911;51.552;9.874;2023-07-08T04:53:39;4.10;;;3.70;;
13795;SDS011;40911;51.552;9.874;2023-07-08T04:56:00;4.65;;;3.40;;
13795;SDS011;40911;51.552;9.874;2023-07-08T04:58:24;6.68;;;3.47;;
13795;SDS011;40911;51.552;9.874;2023-07-08T05:00:45;4.80;;;3.35;;
13795;SDS011;40911;51.552;9.874;2023-07-08T05:03:07;6.63;;;3.20;;
13795;SDS011;40911;51.552;9.874;2023-07-08T05:07:50;8.05;;;3.20;;
13795;SDS011;40911;51.552;9.874;2023-07-08T05:12:33;6.78;;;4.10;;
13795;SDS011;40911;51.552;9.874;2023-07-08T05:14:57;4.68;;;2.83;;
13795;SDS011;40911;51.552;9.874;2023-07-08T05:17:19;5.25;;;3.40;;
13795;SDS011;40911;51.552;9.874;2023-07-08T05:19:40;6.78;;;3.60;;
13795;SDS011;40911;51.552;9.874;2023-07-08T05:22:04;4.30;;;3.50;;
13795;SDS011;40911;51.552;9.874;2023-07-08T05:26:47;5.97;;;3.70;;
13795;SDS011;40911;51.552;9.874;2023-07-08T05:31:32;4.20;;;3.58;;
13795;SDS011;40911;51.552;9.874;2023-07-08T05:33:54;8.55;;;3.40;;
13795;SDS011;40911;51.552;9.874;2023-07-08T05:38:37;4.75;;;3.92;;
13795;SDS011;40911;51.552;9.874;2023-07-08T05:43:20;6.68;;;5.90;;
13795;SDS011;40911;51.552;9.874;2023-07-08T05:45:42;6.35;;;5.30;;
13795;SDS011;40911;51.552;9.874;2023-07-08T05:48:05;7.55;;;5.28;;
13795;SDS011;40911;51.552;9.874;2023-07-08T05:50:27;6.43;;;5.10;;
13795;SDS011;40911;51.552;9.874;2023-07-08T05:52:49;5.95;;;4.50;;
13795;SDS011;40911;51.552;9.874;2023-07-08T05:55:10;6.22;;;4.38;;
13795;SDS011;40911;51.552;9.874;2023-07-08T05:57:32;6.00;;;4.07;;
13795;SDS011;40911;51.552;9.874;2023-07-08T05:59:54;4.95;;;3.83;;
13795;SDS011;40911;51.552;9.874;2023-07-08T06:02:15;4.45;;;3.70;;
13795;SDS011;40911;51.552;9.874;2023-07-08T06:04:41;5.63;;;3.40;;
13795;SDS011;40911;51.552;9.874;2023-07-08T06:07:02;4.53;;;3.60;;
13795;SDS011;40911;51.552;9.874;2023-07-08T06:09:24;6.55;;;3.47;;
13795;SDS011;40911;51.552;9.874;2023-07-08T06:11:46;5.13;;;3.20;;
13795;SDS011;40911;51.552;9.874;2023-07-08T06:14:07;6.63;;;3.20;;
13795;SDS011;40911;51.552;9.874;2023-07-08T06:16:29;4.40;;;3.05;;
13795;SDS011;40911;51.552;9.874;2023-07-08T06:18:51;3.78;;;3.30;;
13795;SDS011;40911;51.552;9.874;2023-07-08T06:21:14;6.40;;;2.88;;
13795;SDS011;40911;51.552;9.874;2023-07-08T06:23:35;4.03;;;3.13;;
13795;SDS011;40911;51.552;9.874;2023-07-08T06:25:57;4.78;;;3.10;;
13795;SDS011;40911;51.552;9.874;2023-07-08T06:28:19;5.80;;;3.22;;
13795;SDS011;40911;51.552;9.874;2023-07-08T06:30:41;5.00;;;3.30;;
13795;SDS011;40911;51.552;9.874;2023-07-08T06:33:02;6.60;;;3.30;;
13795;SDS011;40911;51.552;9.874;2023-07-08T06:35:24;3.97;;;3.17;;
13795;SDS011;40911;51.552;9.874;2023-07-08T06:37:47;5.18;;;3.25;;
13795;SDS011;40911;51.552;9.874;2023-07-08T06:40:09;5.30;;;2.90;;
13795;SDS011;40911;51.552;9.874;2023-07-08T06:42:31;6.22;;;3.00;;
13795;SDS011;40911;51.552;9.874;2023-07-08T06:44:53;6.82;;;3.35;;
13795;SDS011;40911;51.552;9.874;2023-07-08T06:47:15;7.22;;;3.20;;
13795;SDS011;40911;51.552;9.874;2023-07-08T06:49:36;7.60;;;3.10;;
13795;SDS011;40911;51.552;9.874;2023-07-08T06:51:58;4.85;;;3.00;;
13795;SDS011;40911;51.552;9.874;2023-07-08T06:54:22;5.38;;;2.88;;
13795;SDS011;40911;51.552;9.874;2023-07-08T06:56:45;4.70;;;3.10;;
13795;SDS011;40911;51.552;9.874;2023-07-08T06:59:06;3.30;;;2.78;;
13795;SDS011;40911;51.552;9.874;2023-07-08T07:01:29;5.95;;;3.30;;
13795;SDS011;40911;51.552;9.874;2023-07-08T07:03:50;4.40;;;2.97;;
13795;SDS011;40911;51.552;9.874;2023-07-08T07:06:12;3.63;;;2.78;;
13795;SDS011;40911;51.552;9.874;2023-07-08T07:08:34;5.53;;;2.85;;
13795;SDS011;40911;51.552;9.874;2023-07-08T07:10:57;5.15;;;3.05;;
13795;SDS011;40911;51.552;9.874;2023-07-08T07:13:18;5.15;;;2.97;;
13795;SDS011;40911;51.552;9.874;2023-07-08T07:15:40;4.15;;;2.50;;
13795;SDS011;40911;51.552;9.874;2023-07-08T07:18:02;5.80;;;2.33;;
13795;SDS011;40911;51.552;9.874;2023-07-08T07:20:24;5.35;;;2.88;;
13795;SDS011;40911;51.552;9.874;2023-07-08T07:22:46;5.40;;;3.20;;
13795;SDS011;40911;51.552;9.874;2023-07-08T07:25:08;4.38;;;3.10;;
13795;SDS011;40911;51.552;9.874;2023-07-08T07:27:31;4.85;;;3.20;;
13795;SDS011;40911;51.552;9.874;2023-07-08T07:29:52;8.00;;;3.30;;
13795;SDS011;40911;51.552;9.874;2023-07-08T07:32:15;5.75;;;3.03;;
13795;SDS011;40911;51.552;9.874;2023-07-08T07:34:38;4.22;;;3.53;;
13795;SDS011;40911;51.552;9.874;2023-07-08T07:39:21;5.35;;;3.30;;
13795;SDS011;40911;51.552;9.874;2023-07-08T07:41:42;4.53;;;2.83;;
13795;SDS011;40911;51.552;9.874;2023-07-08T07:44:05;7.10;;;2.70;;
13795;SDS011;40911;51.552;9.874;2023-07-08T07:46:27;4.15;;;2.70;;
13795;SDS011;40911;51.552;9.874;2023-07-08T07:48:49;5.63;;;3.08;;
13795;SDS011;40911;51.552;9.874;2023-07-08T07:51:10;4.85;;;2.55;;
13795;SDS011;40911;51.552;9.874;2023-07-08T07:53:32;4.53;;;2.50;;
13795;SDS011;40911;51.552;9.874;2023-07-08T07:55:57;4.55;;;2.78;;
13795;SDS011;40911;51.552;9.874;2023-07-08T07:58:19;4.97;;;2.53;;
13795;SDS011;40911;51.552;9.874;2023-07-08T08:00:42;3.10;;;2.72;;
13795;SDS011;40911;51.552;9.874;2023-07-08T08:03:04;5.38;;;2.83;;
13795;SDS011;40911;51.552;9.874;2023-07-08T08:05:26;4.05;;;2.55;;
13795;SDS011;40911;51.552;9.874;2023-07-08T08:07:47;5.95;;;2.55;;
13795;SDS011;40911;51.552;9.874;2023-07-08T08:10:09;3.90;;;2.55;;
13795;SDS011;40911;51.552;9.874;2023-07-08T08:12:31;5.10;;;2.30;;
13795;SDS011;40911;51.552;9.874;2023-07-08T08:14:52;6.43;;;2.65;;
13795;SDS011;40911;51.552;9.874;2023-07-08T08:17:15;5.00;;;2.78;;
13795;SDS011;40911;51.552;9.874;2023-07-08T08:19:37;3.63;;;2.50;;
13795;SDS011;40911;51.552;9.874;2023-07-08T08:21:59;4.13;;;2.67;;
13795;SDS011;40911;51.552;9.874;2023-07-08T08:24:20;6.13;;;2.70;;
13795;SDS011;40911;51.552;9.874;2023-07-08T08:26:42;4.70;;;2.72;;
13795;SDS011;40911;51.552;9.874;2023-07-08T08:29:03;4.43;;;2.65;;
13795;SDS011;40911;51.552;9.874;2023-07-08T08:31:25;5.45;;;2.80;;
13795;SDS011;40911;51.552;9.874;2023-07-08T08:33:48;3.60;;;2.53;;
13795;SDS011;40911;51.552;9.874;2023-07-08T08:36:12;4.93;;;2.90;;
13795;SDS011;40911;51.552;9.874;2023-07-08T08:38:33;3.42;;;2.45;;
13795;SDS011;40911;51.552;9.874;2023-07-08T08:40:55;4.53;;;2.58;;
13795;SDS011;40911;51.552;9.874;2023-07-08T08:43:18;4.45;;;3.10;;
13795;SDS011;40911;51.552;9.874;2023-07-08T08:45:46;3.10;;;2.70;;
13795;SDS011;40911;51.552;9.874;2023-07-08T08:48:15;4.65;;;3.10;;
13795;SDS011;40911;51.552;9.874;2023-07-08T08:50:43;4.30;;;2.67;;
13795;SDS011;40911;51.552;9.874;2023-07-08T08:53:11;2.92;;;2.63;;
13795;SDS011;40911;51.552;9.874;2023-07-08T08:55:34;4.55;;;2.92;;
13795;SDS011;40911;51.552;9.874;2023-07-08T08:57:59;4.35;;;3.10;;
13795;SDS011;40911;51.552;9.874;2023-07-08T09:00:33;2.78;;;2.38;;
13795;SDS011;40911;51.552;9.874;2023-07-08T09:03:04;3.65;;;2.50;;
13795;SDS011;40911;51.552;9.874;2023-07-08T09:05:30;3.70;;;2.50;;
13795;SDS011;40911;51.552;9.874;2023-07-08T09:07:57;4.90;;;2.70;;
13795;SDS011;40911;51.552;9.874;2023-07-08T09:10:26;3.85;;;2.83;;
13795;SDS011;40911;51.552;9.874;2023-07-08T09:12:58;4.75;;;2.60;;
13795;SDS011;40911;51.552;9.874;2023-07-08T09:15:26;6.25;;;2.60;;
13795;SDS011;40911;51.552;9.874;2023-07-08T09:17:47;3.13;;;2.80;;
13795;SDS011;40911;51.552;9.874;2023-07-08T09:20:17;4.45;;;2.60;;
13795;SDS011;40911;51.552;9.874;2023-07-08T09:22:43;5.10;;;2.75;;
13795;SDS011;40911;51.552;9.874;2023-07-08T09:25:11;5.53;;;3.00;;
13795;SDS011;40911;51.552;9.874;2023-07-08T09:27:45;7.32;;;2.90;;
13795;SDS011;40911;51.552;9.874;2023-07-08T09:30:08;5.47;;;3.08;;
13795;SDS011;40911;51.552;9.874;2023-07-08T09:32:34;3.38;;;2.70;;
13795;SDS011;40911;51.552;9.874;2023-07-08T09:34:56;3.65;;;2.80;;
13795;SDS011;40911;51.552;9.874;2023-07-08T09:37:25;5.90;;;2.63;;
13795;SDS011;40911;51.552;9.874;2023-07-08T09:39:48;5.72;;;2.80;;
13795;SDS011;40911;51.552;9.874;2023-07-08T09:42:12;11.27;;;3.17;;
13795;SDS011;40911;51.552;9.874;2023-07-08T09:44:35;9.93;;;2.60;;
13795;SDS011;40911;51.552;9.874;2023-07-08T09:46:59;3.58;;;2.70;;
13795;SDS011;40911;51.552;9.874;2023-07-08T09:49:24;7.43;;;3.13;;
13795;SDS011;40911;51.552;9.874;2023-07-08T09:51:49;5.28;;;3.05;;
13795;SDS011;40911;51.552;9.874;2023-07-08T09:54:11;5.20;;;3.20;;
13795;SDS011;40911;51.552;9.874;2023-07-08T09:56:32;6.45;;;2.92;;
13795;SDS011;40911;51.552;9.874;2023-07-08T09:58:56;3.97;;;3.00;;
13795;SDS011;40911;51.552;9.874;2023-07-08T10:01:19;4.15;;;3.08;;
13795;SDS011;40911;51.552;9.874;2023-07-08T10:03:44;4.38;;;3.30;;
13795;SDS011;40911;51.552;9.874;2023-07-08T10:06:14;5.55;;;2.75;;
13795;SDS011;40911;51.552;9.874;2023-07-08T10:08:39;3.20;;;2.90;;
13795;SDS011;40911;51.552;9.874;2023-07-08T10:11:03;3.92;;;3.00;;
13795;SDS011;40911;51.552;9.874;2023-07-08T10:13:34;6.70;;;3.28;;
13795;SDS011;40911;51.552;9.874;2023-07-08T10:16:02;5.13;;;3.05;;
13795;SDS011;40911;51.552;9.874;2023-07-08T10:18:35;4.05;;;3.28;;
13795;SDS011;40911;51.552;9.874;2023-07-08T10:20:57;5.93;;;2.80;;
13795;SDS011;40911;51.552;9.874;2023-07-08T10:23:27;4.88;;;3.20;;
13795;SDS011;40911;51.552;9.874;2023-07-08T10:26:00;4.53;;;3.25;;
13795;SDS011;40911;51.552;9.874;2023-07-08T10:28:31;3.85;;;3.03;;
13795;SDS011;40911;51.552;9.874;2023-07-08T10:33:35;3.65;;;2.72;;
13795;SDS011;40911;51.552;9.874;2023-07-08T10:36:12;3.95;;;2.80;;
13795;SDS011;40911;51.552;9.874;2023-07-08T10:38:43;4.20;;;3.13;;
13795;SDS011;40911;51.552;9.874;2023-07-08T10:41:12;3.70;;;2.97;;
13795;SDS011;40911;51.552;9.874;2023-07-08T10:43:46;4.03;;;2.85;;
13795;SDS011;40911;51.552;9.874;2023-07-08T10:46:31;3.80;;;3.20;;
13795;SDS011;40911;51.552;9.874;2023-07-08T10:49:14;3.13;;;2.80;;
13795;SDS011;40911;51.552;9.874;2023-07-08T10:51:51;3.97;;;3.05;;
13795;SDS011;40911;51.552;9.874;2023-07-08T10:54:33;3.88;;;3.08;;
13795;SDS011;40911;51.552;9.874;2023-07-08T10:57:10;5.80;;;3.53;;
13795;SDS011;40911;51.552;9.874;2023-07-08T10:59:43;3.80;;;3.10;;
13795;SDS011;40911;51.552;9.874;2023-07-08T11:02:20;3.60;;;3.10;;
13795;SDS011;40911;51.552;9.874;2023-07-08T11:04:58;5.75;;;3.15;;
13795;SDS011;40911;51.552;9.874;2023-07-08T11:07:31;4.13;;;3.17;;
13795;SDS011;40911;51.552;9.874;2023-07-08T11:10:00;5.30;;;2.95;;
13795;SDS011;40911;51.552;9.874;2023-07-08T11:12:25;4.43;;;3.35;;
13795;SDS011;40911;51.552;9.874;2023-07-08T11:14:52;3.88;;;3.38;;
13795;SDS011;40911;51.552;9.874;2023-07-08T11:17:22;3.42;;;2.92;;
13795;SDS011;40911;51.552;9.874;2023-07-08T11:19:48;6.22;;;3.33;;
13795;SDS011;40911;51.552;9.874;2023-07-08T11:22:16;3.63;;;3.10;;
13795;SDS011;40911;51.552;9.874;2023-07-08T11:24:42;5.13;;;3.28;;
13795;SDS011;40911;51.552;9.874;2023-07-08T11:27:07;5.20;;;3.28;;
13795;SDS011;40911;51.552;9.874;2023-07-08T11:29:35;5.35;;;3.47;;
13795;SDS011;40911;51.552;9.874;2023-07-08T11:31:59;4.75;;;3.40;;
13795;SDS011;40911;51.552;9.874;2023-07-08T11:34:23;5.05;;;3.40;;
13795;SDS011;40911;51.552;9.874;2023-07-08T11:36:45;4.65;;;3.53;;
13795;SDS011;40911;51.552;9.874;2023-07-08T11:41:52;5.32;;;3.45;;
13795;SDS011;40911;51.552;9.874;2023-07-08T11:44:24;3.75;;;3.15;;
13795;SDS011;40911;51.552;9.874;2023-07-08T11:46:53;6.22;;;3.75;;
13795;SDS011;40911;51.552;9.874;2023-07-08T11:49:16;8.25;;;3.60;;
13795;SDS011;40911;51.552;9.874;2023-07-08T11:51:41;5.00;;;3.60;;
13795;SDS011;40911;51.552;9.874;2023-07-08T11:54:13;5.03;;;4.35;;
13795;SDS011;40911;51.552;9.874;2023-07-08T11:56:46;5.45;;;3.42;;
13795;SDS011;40911;51.552;9.874;2023-07-08T11:59:12;5.75;;;3.50;;
13795;SDS011;40911;51.552;9.874;2023-07-08T12:01:39;4.95;;;3.75;;
13795;SDS011;40911;51.552;9.874;2023-07-08T12:04:16;3.80;;;3.05;;
13795;SDS011;40911;51.552;9.874;2023-07-08T12:06:52;4.30;;;3.10;;
13795;SDS011;40911;51.552;9.874;2023-07-08T12:09:23;4.90;;;3.60;;
13795;SDS011;40911;51.552;9.874;2023-07-08T12:11:47;4.25;;;3.30;;
13795;SDS011;40911;51.552;9.874;2023-07-08T12:14:12;4.40;;;3.45;;
13795;SDS011;40911;51.552;9.874;2023-07-08T12:16:34;4.25;;;3.00;;
13795;SDS011;40911;51.552;9.874;2023-07-08T12:18:57;5.90;;;3.28;;
13795;SDS011;40911;51.552;9.874;2023-07-08T12:21:21;5.97;;;3.22;;
13795;SDS011;40911;51.552;9.874;2023-07-08T12:23:45;5.57;;;3.38;;
13795;SDS011;40911;51.552;9.874;2023-07-08T12:26:08;5.50;;;3.45;;
13795;SDS011;40911;51.552;9.874;2023-07-08T12:28:29;3.42;;;3.05;;
13795;SDS011;40911;51.552;9.874;2023-07-08T12:30:51;5.90;;;3.20;;
13795;SDS011;40911;51.552;9.874;2023-07-08T12:33:16;4.78;;;3.63;;
13795;SDS011;40911;51.552;9.874;2023-07-08T12:35:40;4.32;;;3.30;;
13795;SDS011;40911;51.552;9.874;2023-07-08T12:38:05;4.95;;;3.35;;
13795;SDS011;40911;51.552;9.874;2023-07-08T12:40:37;5.13;;;3.05;;
13795;SDS011;40911;51.552;9.874;2023-07-08T12:42:58;4.00;;;3.17;;
13795;SDS011;40911;51.552;9.874;2023-07-08T12:45:22;3.70;;;3.28;;
13795;SDS011;40911;51.552;9.874;2023-07-08T12:47:45;4.30;;;3.50;;
13795;SDS011;40911;51.552;9.874;2023-07-08T12:50:08;5.82;;;3.85;;
13795;SDS011;40911;51.552;9.874;2023-07-08T12:52:30;3.67;;;3.28;;
13795;SDS011;40911;51.552;9.874;2023-07-08T12:54:52;4.57;;;3.85;;
13795;SDS011;40911;51.552;9.874;2023-07-08T12:57:15;4.18;;;3.45;;
13795;SDS011;40911;51.552;9.874;2023-07-08T12:59:38;4.38;;;3.70;;
13795;SDS011;40911;51.552;9.874;2023-07-08T13:02:00;4.22;;;3.33;;
13795;SDS011;40911;51.552;9.874;2023-07-08T13:04:22;4.57;;;3.38;;
13795;SDS011;40911;51.552;9.874;2023-07-08T13:06:43;4.53;;;3.60;;
13795;SDS011;40911;51.552;9.874;2023-07-08T13:09:07;4.70;;;3.20;;
13795;SDS011;40911;51.552;9.874;2023-07-08T13:11:40;5.65;;;3.58;;
13795;SDS011;40911;51.552;9.874;2023-07-08T13:14:04;4.72;;;3.50;;
13795;SDS011;40911;51.552;9.874;2023-07-08T13:16:28;4.80;;;3.42;;
13795;SDS011;40911;51.552;9.874;2023-07-08T13:18:53;5.05;;;3.67;;
13795;SDS011;40911;51.552;9.874;2023-07-08T13:21:15;5.40;;;3.60;;
13795;SDS011;40911;51.552;9.874;2023-07-08T13:23:37;3.67;;;2.90;;
13795;SDS011;40911;51.552;9.874;2023-07-08T13:26:00;6.38;;;3.70;;
13795;SDS011;40911;51.552;9.874;2023-07-08T13:28:23;4.40;;;3.80;;
13795;SDS011;40911;51.552;9.874;2023-07-08T13:30:51;5.05;;;3.47;;
13795;SDS011;40911;51.552;9.874;2023-07-08T13:33:14;4.18;;;3.50;;
13795;SDS011;40911;51.552;9.874;2023-07-08T13:35:37;3.55;;;3.10;;
13795;SDS011;40911;51.552;9.874;2023-07-08T13:38:02;4.03;;;3.58;;
13795;SDS011;40911;51.552;9.874;2023-07-08T13:40:26;4.40;;;3.65;;
13795;SDS011;40911;51.552;9.874;2023-07-08T13:42:49;5.28;;;4.43;;
13795;SDS011;40911;51.552;9.874;2023-07-08T13:45:13;5.22;;;3.60;;
13795;SDS011;40911;51.552;9.874;2023-07-08T13:47:38;4.95;;;3.67;;
13795;SDS011;40911;51.552;9.874;2023-07-08T13:50:01;5.35;;;3.83;;
13795;SDS011;40911;51.552;9.874;2023-07-08T13:52:28;4.65;;;3.75;;
13795;SDS011;40911;51.552;9.874;2023-07-08T13:54:51;4.82;;;3.40;;
13795;SDS011;40911;51.552;9.874;2023-07-08T13:57:16;4.93;;;3.75;;
13795;SDS011;40911;51.552;9.874;2023-07-08T13:59:39;4.50;;;3.60;;
13795;SDS011;40911;51.552;9.874;2023-07-08T14:02:01;4.28;;;3.67;;
13795;SDS011;40911;51.552;9.874;2023-07-08T14:04:25;4.13;;;3.33;;
13795;SDS011;40911;51.552;9.874;2023-07-08T14:06:50;4.70;;;3.97;;
13795;SDS011;40911;51.552;9.874;2023-07-08T14:09:13;4.18;;;3.35;;
13795;SDS011;40911;51.552;9.874;2023-07-08T14:11:36;4.35;;;3.60;;
13795;SDS011;40911;51.552;9.874;2023-07-08T14:13:58;4.43;;;3.53;;
13795;SDS011;40911;51.552;9.874;2023-07-08T14:16:21;3.75;;;3.35;;
13795;SDS011;40911;51.552;9.874;2023-07-08T14:18:47;5.15;;;3.75;;
13795;SDS011;40911;51.552;9.874;2023-07-08T14:21:10;6.75;;;3.67;;
13795;SDS011;40911;51.552;9.874;2023-07-08T14:23:31;4.85;;;3.67;;
13795;SDS011;40911;51.552;9.874;2023-07-08T14:25:53;6.05;;;3.55;;
13795;SDS011;40911;51.552;9.874;2023-07-08T14:28:15;5.03;;;3.63;;
13795;SDS011;40911;51.552;9.874;2023-07-08T14:30:38;4.60;;;3.65;;
13795;SDS011;40911;51.552;9.874;2023-07-08T14:33:03;4.28;;;3.42;;
13795;SDS011;40911;51.552;9.874;2023-07-08T14:35:26;4.15;;;3.65;;
13795;SDS011;40911;51.552;9.874;2023-07-08T14:37:51;5.13;;;4.03;;
13795;SDS011;40911;51.552;9.874;2023-07-08T14:40:22;6.10;;;3.88;;
13795;SDS011;40911;51.552;9.874;2023-07-08T14:42:45;5.07;;;3.53;;
13795;SDS011;40911;51.552;9.874;2023-07-08T14:45:07;5.30;;;3.95;;
13795;SDS011;40911;51.552;9.874;2023-07-08T14:47:29;5.05;;;4.10;;
13795;SDS011;40911;51.552;9.874;2023-07-08T14:49:51;4.35;;;3.75;;
13795;SDS011;40911;51.552;9.874;2023-07-08T14:52:13;5.38;;;4.20;;
13795;SDS011;40911;51.552;9.874;2023-07-08T14:54:36;7.95;;;4.30;;
13795;SDS011;40911;51.552;9.874;2023-07-08T14:56:57;6.75;;;3.80;;
13795;SDS011;40911;51.552;9.874;2023-07-08T14:59:20;4.82;;;3.88;;
13795;SDS011;40911;51.552;9.874;2023-07-08T15:01:43;7.28;;;3.80;;
13795;SDS011;40911;51.552;9.874;2023-07-08T15:04:08;6.55;;;3.72;;
13795;SDS011;40911;51.552;9.874;2023-07-08T15:06:31;5.78;;;4.13;;
13795;SDS011;40911;51.552;9.874;2023-07-08T15:08:53;4.10;;;3.70;;
13795;SDS011;40911;51.552;9.874;2023-07-08T15:11:16;6.60;;;4.00;;
13795;SDS011;40911;51.552;9.874;2023-07-08T15:13:39;3.92;;;3.47;;
13795;SDS011;40911;51.552;9.874;2023-07-08T15:16:03;6.05;;;3.85;;
13795;SDS011;40911;51.552;9.874;2023-07-08T15:18:25;5.82;;;3.75;;
13795;SDS011;40911;51.552;9.874;2023-07-08T15:20:47;5.68;;;4.03;;
13795;SDS011;40911;51.552;9.874;2023-07-08T15:23:09;5.68;;;3.72;;
13795;SDS011;40911;51.552;9.874;2023-07-08T15:25:32;3.95;;;3.47;;
13795;SDS011;40911;51.552;9.874;2023-07-08T15:27:55;3.80;;;3.25;;
13795;SDS011;40911;51.552;9.874;2023-07-08T15:30:19;4.75;;;3.67;;
13795;SDS011;40911;51.552;9.874;2023-07-08T15:32:42;4.60;;;3.72;;
13795;SDS011;40911;51.552;9.874;2023-07-08T15:35:07;8.80;;;4.13;;
13795;SDS011;40911;51.552;9.874;2023-07-08T15:37:33;5.97;;;3.92;;
13795;SDS011;40911;51.552;9.874;2023-07-08T15:39:55;6.35;;;4.00;;
13795;SDS011;40911;51.552;9.874;2023-07-08T15:42:17;4.38;;;3.45;;
13795;SDS011;40911;51.552;9.874;2023-07-08T15:44:40;6.13;;;3.40;;
13795;SDS011;40911;51.552;9.874;2023-07-08T15:47:02;4.00;;;3.60;;
13795;SDS011;40911;51.552;9.874;2023-07-08T15:49:24;5.03;;;4.13;;
13795;SDS011;40911;51.552;9.874;2023-07-08T15:51:47;5.43;;;3.80;;
13795;SDS011;40911;51.552;9.874;2023-07-08T15:54:09;4.28;;;3.80;;
13795;SDS011;40911;51.552;9.874;2023-07-08T15:56:31;4.57;;;3.70;;
13795;SDS011;40911;51.552;9.874;2023-07-08T15:58:53;5.78;;;3.90;;
13795;SDS011;40911;51.552;9.874;2023-07-08T16:01:16;5.15;;;3.70;;
13795;SDS011;40911;51.552;9.874;2023-07-08T16:03:41;5.47;;;4.07;;
13795;SDS011;40911;51.552;9.874;2023-07-08T16:06:03;7.63;;;3.50;;
13795;SDS011;40911;51.552;9.874;2023-07-08T16:08:25;4.30;;;3.75;;